Time;durP1;ratioP1;P1;durP2;ratioP2;P2;SDS_P1;SDS_P2;PMS_P1;PMS_P2;Temp;Humidity;BMP_temperature;BMP_pressure;BME280_temperature;BME280_humidity;BME280_pressure;Samples;Min_cycle;Max_cycle;Signal;HPM_P1;HPM_P2
2022/09/11 00:01:12;;;;;;;;;;;;;;;26.19;51.30;99139.44;4991250;28;19914;-78
2022/09/11 00:03:38;;;;;;;;;;;;;;;26.22;51.63;99136.16;4991139;28;20333;-78
2022/09/11 00:06:09;;;;;;;;;;;;;;;26.23;51.66;99136.94;4991096;28;19914;-78
2022/09/11 00:08:35;;;;;;;;;;;;;;;26.24;52.06;99130.44;4989799;28;19937;-78
2022/09/11 00:11:01;;;;;;;;;;;;;;;26.21;52.22;99128.31;4991090;28;20386;-77
2022/09/11 00:13:27;;;;;;;;;;;;;;;26.19;52.06;99127.81;4990992;28;19922;-77
2022/09/11 00:15:52;;;;;;;;;;;;;;;26.17;52.09;99119.97;4991018;28;19921;-77
2022/09/11 00:18:20;;;;;;;;;;;;;;;26.16;51.26;99128.38;4989828;28;19971;-77
2022/09/11 00:20:48;;;;;;;;;;;;;;;26.17;51.83;99135.41;4991029;28;19925;-78
2022/09/11 00:23:16;;;;;;;;;;;;;;;26.17;51.40;99140.81;4991413;28;20002;-78
2022/09/11 00:25:41;;;;;;;;;;;;;;;26.18;51.52;99134.31;4991209;28;19914;-78
2022/09/11 00:28:10;;;;;;;;;;;;;;;26.17;51.36;99138.09;4990898;28;20005;-77
2022/09/11 00:30:36;;;;;;;;;;;;;;;26.18;51.34;99139.72;4991007;28;19914;-78
2022/09/11 00:33:01;;;;;;;;;;;;;;;26.17;51.50;99135.41;4991058;28;20372;-78
2022/09/11 00:35:27;;;;;;;;;;;;;;;26.17;51.06;99130.00;4990801;28;20344;-78
2022/09/11 00:37:53;;;;;;;;;;;;;;;26.16;51.60;99133.78;4990721;28;19914;-78
2022/09/11 00:40:18;;;;;;;;;;;;;;;26.12;52.20;99121.94;4989471;28;19966;-78
2022/09/11 00:42:43;;;;;;;;;;;;;;;26.10;51.38;99124.13;4989526;28;20005;-78
2022/09/11 00:45:18;;;;;;;;;;;;;;;26.06;51.28;99131.22;4990708;28;19914;-78
2022/09/11 00:47:44;;;;;;;;;;;;;;;26.00;51.91;99125.03;4990722;28;19910;-78
2022/09/11 00:50:12;;;;;;;;;;;;;;;25.97;52.62;99131.81;4990184;28;19914;-78
2022/09/11 00:52:40;;;;;;;;;;;;;;;25.96;52.47;99127.50;4990315;28;19978;-78
2022/09/11 00:55:13;;;;;;;;;;;;;;;25.95;51.71;99127.81;4990642;28;19957;-78
2022/09/11 00:57:42;;;;;;;;;;;;;;;25.91;51.46;99132.97;4990571;28;20374;-78
2022/09/11 01:00:08;;;;;;;;;;;;;;;25.92;52.16;99134.59;4990564;28;19913;-78
2022/09/11 01:02:35;;;;;;;;;;;;;;;25.93;51.85;99133.50;4989244;28;20043;-78
2022/09/11 01:05:01;;;;;;;;;;;;;;;25.91;52.14;99130.28;4990435;28;20371;-78
2022/09/11 01:07:27;;;;;;;;;;;;;;;25.92;52.21;99131.09;4990381;28;19924;-78
2022/09/11 01:09:54;;;;;;;;;;;;;;;25.88;52.19;99130.84;4990361;28;19950;-78
2022/09/11 01:12:25;;;;;;;;;;;;;;;25.87;51.67;99123.84;4990315;28;19920;-78
2022/09/11 01:14:54;;;;;;;;;;;;;;;25.87;52.10;99134.66;4990330;28;20010;-78
2022/09/11 01:17:38;;;;;;;;;;;;;;;25.84;51.83;99126.31;4990152;28;19913;-78
2022/09/11 01:20:14;;;;;;;;;;;;;;;25.79;52.00;99120.97;4990032;28;19947;-78
2022/09/11 01:22:49;;;;;;;;;;;;;;;25.79;50.98;99120.97;4990280;28;19914;-78
2022/09/11 01:25:23;;;;;;;;;;;;;;;25.77;51.82;99134.78;4988755;28;19913;-78
2022/09/11 01:27:52;;;;;;;;;;;;;;;25.75;51.69;99128.84;4989958;28;20295;-78
2022/09/11 01:30:22;;;;;;;;;;;;;;;25.70;51.11;99125.38;4990043;28;19967;-78
2022/09/11 01:32:59;;;;;;;;;;;;;;;25.61;52.34;99122.47;4990077;28;19918;-78
2022/09/11 01:35:24;;;;;;;;;;;;;;;25.58;52.33;99125.75;4990128;28;20000;-78
2022/09/11 01:38:11;;;;;;;;;;;;;;;25.54;52.48;99122.81;4990102;28;19992;-78
2022/09/11 01:40:51;;;;;;;;;;;;;;;25.55;52.89;99129.03;4988704;28;19918;-78
2022/09/11 01:43:23;;;;;;;;;;;;;;;25.56;52.33;99123.34;4989997;28;20466;-78
2022/09/11 01:45:50;;;;;;;;;;;;;;;25.56;53.19;99125.25;4989999;28;20398;-78
2022/09/11 01:48:20;;;;;;;;;;;;;;;25.53;53.02;99117.69;4990092;28;19914;-78
2022/09/11 01:50:46;;;;;;;;;;;;;;;25.50;53.24;99115.56;4989674;28;20004;-78
2022/09/11 01:53:15;;;;;;;;;;;;;;;25.48;52.91;99113.16;4989619;28;19918;-78
2022/09/11 01:55:44;;;;;;;;;;;;;;;25.42;52.81;99110.78;4989847;28;19920;-78
2022/09/11 01:58:16;;;;;;;;;;;;;;;25.37;53.20;99110.84;4989640;28;20320;-78
2022/09/11 02:00:43;;;;;;;;;;;;;;;25.36;53.01;99115.44;4988428;28;19997;-78
2022/09/11 02:03:21;;;;;;;;;;;;;;;25.31;53.22;99113.59;4989503;28;19971;-78
2022/09/11 02:05:57;;;;;;;;;;;;;;;25.25;53.94;99116.59;4989547;28;20025;-78
2022/09/11 02:08:35;;;;;;;;;;;;;;;25.24;54.45;99118.50;4989550;28;19914;-78
2022/09/11 02:11:04;;;;;;;;;;;;;;;25.25;53.38;99114.69;4988142;28;19917;-78
2022/09/11 02:13:33;;;;;;;;;;;;;;;25.25;53.13;99111.19;4989224;28;20330;-78
2022/09/11 02:16:13;;;;;;;;;;;;;;;25.26;53.40;99102.81;4989145;28;19913;-78
2022/09/11 02:18:53;;;;;;;;;;;;;;;25.23;53.56;99099.88;4989343;28;19997;-78
2022/09/11 02:21:19;;;;;;;;;;;;;;;25.23;53.65;99100.66;4989130;28;19914;-78
2022/09/11 02:23:44;;;;;;;;;;;;;;;25.22;53.78;99093.66;4987951;28;19918;-78
2022/09/11 02:26:12;;;;;;;;;;;;;;;25.20;54.15;99098.53;4989186;28;20390;-78
2022/09/11 02:28:37;;;;;;;;;;;;;;;25.18;53.60;99113.41;4987969;28;19967;-78
2022/09/11 02:31:03;;;;;;;;;;;;;;;25.16;53.45;99104.78;4989097;28;19917;-78
2022/09/11 02:33:29;;;;;;;;;;;;;;;25.14;52.75;99093.47;4989186;28;20302;-78
2022/09/11 02:35:56;;;;;;;;;;;;;;;25.14;54.14;99104.28;4989213;28;20371;-78
2022/09/11 02:38:28;;;;;;;;;;;;;;;25.14;53.34;99101.56;4989160;28;19918;-78
2022/09/11 02:40:57;;;;;;;;;;;;;;;25.13;53.13;99106.16;4989120;28;20402;-78
2022/09/11 02:43:38;;;;;;;;;;;;;;;25.12;53.20;99112.66;4989102;28;19983;-78
2022/09/11 02:46:06;;;;;;;;;;;;;;;25.14;53.23;99112.38;4989111;28;19953;-78
2022/09/11 02:48:31;;;;;;;;;;;;;;;25.15;53.17;99108.59;4989077;28;19928;-78
2022/09/11 02:51:19;;;;;;;;;;;;;;;25.16;53.97;99107.50;4989093;28;19914;-78
2022/09/11 02:53:57;;;;;;;;;;;;;;;25.13;53.27;99099.97;4988916;28;19918;-78
2022/09/11 02:56:37;;;;;;;;;;;;;;;25.12;52.91;99106.44;4989035;28;20314;-78
2022/09/11 02:59:05;;;;;;;;;;;;;;;25.08;53.17;99103.50;4988977;28;19914;-78
2022/09/11 03:01:44;;;;;;;;;;;;;;;25.05;53.75;99108.69;4988987;28;19920;-78
2022/09/11 03:04:10;;;;;;;;;;;;;;;25.03;54.06;99107.06;4987616;28;19914;-78
2022/09/11 03:06:35;;;;;;;;;;;;;;;24.99;54.55;99110.63;4989199;28;19914;-78
2022/09/11 03:09:00;;;;;;;;;;;;;;;24.92;53.70;99110.09;4988632;28;19963;-78
2022/09/11 03:11:26;;;;;;;;;;;;;;;24.91;53.24;99116.59;4989364;28;19918;-78
2022/09/11 03:13:51;;;;;;;;;;;;;;;24.90;53.29;99118.47;4990668;28;19925;-78
2022/09/11 03:16:17;;;;;;;;;;;;;;;24.86;54.17;99112.03;4990584;28;19914;-78
2022/09/11 03:18:42;;;;;;;;;;;;;;;24.84;53.71;99119.63;4991815;28;19921;-78
2022/09/11 03:21:09;;;;;;;;;;;;;;;24.82;53.77;99115.59;4992291;28;20324;-78
2022/09/11 03:23:34;;;;;;;;;;;;;;;24.78;54.05;99115.34;4992185;28;20054;-78
2022/09/11 03:26:00;;;;;;;;;;;;;;;24.77;53.97;99118.31;4991865;28;20008;-78
2022/09/11 03:28:26;;;;;;;;;;;;;;;24.76;54.03;99122.09;4990532;28;19921;-78
2022/09/11 03:30:54;;;;;;;;;;;;;;;24.68;53.34;99123.50;4992002;28;20000;-78
2022/09/11 03:33:19;;;;;;;;;;;;;;;24.64;54.17;99130.56;4991751;28;19958;-78
2022/09/11 03:35:46;;;;;;;;;;;;;;;24.67;53.42;99136.19;4990553;28;19960;-78
2022/09/11 03:38:11;;;;;;;;;;;;;;;24.66;53.91;99129.19;4991931;28;19917;-78
2022/09/11 03:40:36;;;;;;;;;;;;;;;24.67;53.21;99144.31;4991706;28;19917;-78
2022/09/11 03:43:02;;;;;;;;;;;;;;;24.64;53.09;99141.34;4991737;28;20363;-78
2022/09/11 03:45:27;;;;;;;;;;;;;;;24.59;53.85;99147.59;4991830;28;19914;-78
2022/09/11 03:47:53;;;;;;;;;;;;;;;24.61;53.50;99150.00;4991830;28;19920;-78
2022/09/11 03:50:18;;;;;;;;;;;;;;;24.60;53.56;99146.50;4991557;28;19953;-78
2022/09/11 03:52:43;;;;;;;;;;;;;;;24.64;53.15;99150.25;4991482;28;19913;-78
2022/09/11 03:55:09;;;;;;;;;;;;;;;24.63;52.51;99151.34;4991758;28;19918;-78
2022/09/11 03:57:35;;;;;;;;;;;;;;;24.60;52.42;99145.69;4991486;28;20004;-78
2022/09/11 04:00:01;;;;;;;;;;;;;;;24.60;52.70;99143.00;4991386;28;19914;-78
2022/09/11 04:02:27;;;;;;;;;;;;;;;24.57;53.12;99138.16;4991432;28;19953;-78
2022/09/11 04:04:52;;;;;;;;;;;;;;;24.61;52.54;99145.41;4990035;28;19968;-78
2022/09/11 04:07:17;;;;;;;;;;;;;;;24.60;53.08;99154.59;4991631;28;19921;-78
2022/09/11 04:09:42;;;;;;;;;;;;;;;24.65;52.41;99149.19;4991299;28;19914;-78
2022/09/11 04:12:08;;;;;;;;;;;;;;;24.65;52.92;99149.19;4991491;28;20313;-78
2022/09/11 04:14:33;;;;;;;;;;;;;;;24.62;53.30;99149.72;4991258;28;19918;-78
2022/09/11 04:16:58;;;;;;;;;;;;;;;24.63;53.32;99151.34;4991132;28;19920;-78
2022/09/11 04:19:24;;;;;;;;;;;;;;;24.61;53.16;99166.22;4991004;28;19972;-78
2022/09/11 04:21:49;;;;;;;;;;;;;;;24.58;52.50;99162.19;4991038;28;20302;-78
2022/09/11 04:24:14;;;;;;;;;;;;;;;24.57;53.65;99162.47;4990200;28;20334;-77
2022/09/11 04:26:39;;;;;;;;;;;;;;;24.50;54.09;99167.31;4991457;28;20364;-77
2022/09/11 04:29:05;;;;;;;;;;;;;;;24.48;53.75;99161.41;4990967;28;20373;-78
2022/09/11 04:31:30;;;;;;;;;;;;;;;24.47;53.18;99162.47;4991172;28;19914;-78
2022/09/11 04:33:56;;;;;;;;;;;;;;;24.49;53.24;99165.72;4990921;28;19928;-77
2022/09/11 04:36:23;;;;;;;;;;;;;;;24.52;53.41;99168.66;4991007;28;19920;-77
2022/09/11 04:38:52;;;;;;;;;;;;;;;24.45;53.94;99170.84;4990845;28;19913;-78
2022/09/11 04:41:17;;;;;;;;;;;;;;;24.45;55.09;99173.56;4990749;28;19967;-78
2022/09/11 04:43:43;;;;;;;;;;;;;;;24.49;52.78;99174.63;4991094;28;19914;-78
2022/09/11 04:46:15;;;;;;;;;;;;;;;24.44;53.04;99171.13;4990744;28;19921;-78
2022/09/11 04:48:48;;;;;;;;;;;;;;;24.40;53.96;99169.00;4989600;28;19921;-77
2022/09/11 04:51:19;;;;;;;;;;;;;;;24.43;55.04;99172.22;4990933;28;19913;-78
2022/09/11 04:53:45;;;;;;;;;;;;;;;24.44;54.40;99160.34;4989342;28;20012;-78
2022/09/11 04:56:13;;;;;;;;;;;;;;;24.43;54.27;99170.31;4990625;28;20000;-77
2022/09/11 04:58:39;;;;;;;;;;;;;;;24.39;53.18;99171.97;4990684;28;19919;-78
2022/09/11 05:01:08;;;;;;;;;;;;;;;24.33;55.04;99168.50;4989362;28;20330;-78
2022/09/11 05:03:34;;;;;;;;;;;;;;;24.30;54.42;99174.44;4990450;28;19914;-78
2022/09/11 05:06:04;;;;;;;;;;;;;;;24.31;54.52;99173.34;4990406;28;20401;-78
2022/09/11 05:08:31;;;;;;;;;;;;;;;24.30;54.31;99170.94;4989041;28;19921;-78
2022/09/11 05:10:58;;;;;;;;;;;;;;;24.29;53.84;99166.63;4990543;28;19914;-78
2022/09/11 05:13:24;;;;;;;;;;;;;;;24.29;54.49;99169.31;4990152;28;20008;-78
2022/09/11 05:15:49;;;;;;;;;;;;;;;24.31;55.10;99169.84;4990403;28;20432;-78
2022/09/11 05:18:15;;;;;;;;;;;;;;;24.34;54.87;99178.19;4990286;28;19944;-78
2022/09/11 05:20:40;;;;;;;;;;;;;;;24.31;54.46;99175.25;4990022;28;19922;-78
2022/09/11 05:23:06;;;;;;;;;;;;;;;24.29;55.07;99175.53;4989075;28;19967;-78
2022/09/11 05:25:31;;;;;;;;;;;;;;;24.29;55.49;99183.63;4989870;28;19957;-78
2022/09/11 05:27:56;;;;;;;;;;;;;;;24.32;54.79;99172.28;4989947;28;19914;-78
2022/09/11 05:30:22;;;;;;;;;;;;;;;24.34;54.15;99174.69;4989947;28;20002;-78
2022/09/11 05:32:53;;;;;;;;;;;;;;;24.36;54.64;99167.94;4989715;28;19918;-78
2022/09/11 05:35:19;;;;;;;;;;;;;;;24.38;53.78;99173.84;4989736;28;19914;-78
2022/09/11 05:37:45;;;;;;;;;;;;;;;24.43;54.96;99174.91;4988516;28;19914;-78
2022/09/11 05:40:11;;;;;;;;;;;;;;;24.44;54.78;99174.63;4989867;28;19914;-78
2022/09/11 05:42:37;;;;;;;;;;;;;;;24.49;54.06;99166.50;4990131;28;19925;-78
2022/09/11 05:45:03;;;;;;;;;;;;;;;24.51;54.17;99166.25;4990045;28;19961;-78
2022/09/11 05:47:28;;;;;;;;;;;;;;;24.49;54.55;99160.31;4989949;28;19913;-78
2022/09/11 05:49:53;;;;;;;;;;;;;;;24.46;53.85;99164.38;4989750;28;20016;-78
2022/09/11 05:52:18;;;;;;;;;;;;;;;24.46;53.50;99161.69;4989737;28;19914;-78
2022/09/11 05:54:44;;;;;;;;;;;;;;;24.48;53.71;99162.19;4988493;28;19967;-78
2022/09/11 05:57:10;;;;;;;;;;;;;;;24.50;54.54;99162.72;4990064;28;19967;-78
2022/09/11 05:59:35;;;;;;;;;;;;;;;24.50;54.44;99162.72;4989789;28;19977;-78
2022/09/11 06:02:01;;;;;;;;;;;;;;;24.47;53.99;99160.59;4989810;28;20389;-78
2022/09/11 06:04:26;;;;;;;;;;;;;;;24.52;53.64;99155.16;4988405;28;19918;-78
2022/09/11 06:06:52;;;;;;;;;;;;;;;24.58;53.37;99158.66;4989516;28;19921;-78
2022/09/11 06:09:17;;;;;;;;;;;;;;;24.65;53.06;99156.47;4989449;28;20291;-78
2022/09/11 06:11:42;;;;;;;;;;;;;;;24.70;52.72;99159.13;4989513;28;19913;-78
2022/09/11 06:14:08;;;;;;;;;;;;;;;24.71;53.25;99158.03;4989438;28;19917;-78
2022/09/11 06:16:34;;;;;;;;;;;;;;;24.74;52.75;99156.69;4989947;28;19914;-78
2022/09/11 06:18:59;;;;;;;;;;;;;;;24.80;52.32;99159.06;4989427;28;20394;-78
2022/09/11 06:21:26;;;;;;;;;;;;;;;24.83;51.96;99166.59;4989467;28;20468;-78
2022/09/11 06:23:51;;;;;;;;;;;;;;;24.82;52.02;99164.19;4989292;28;19970;-78
2022/09/11 06:26:18;;;;;;;;;;;;;;;24.87;52.22;99166.84;4989283;28;20004;-78
2022/09/11 06:28:43;;;;;;;;;;;;;;;24.88;51.72;99173.88;4989129;28;19921;-78
2022/09/11 06:31:10;;;;;;;;;;;;;;;24.91;51.58;99170.59;4988119;28;19914;-78
2022/09/11 06:33:37;;;;;;;;;;;;;;;24.93;51.30;99173.84;4989294;28;20007;-78
2022/09/11 06:36:07;;;;;;;;;;;;;;;24.97;51.38;99162.22;4989375;28;20386;-78
2022/09/11 06:38:32;;;;;;;;;;;;;;;25.12;51.33;99158.59;4989269;28;19980;-78
2022/09/11 06:41:04;;;;;;;;;;;;;;;25.17;50.66;99152.34;4987907;28;19913;-78
2022/09/11 06:43:30;;;;;;;;;;;;;;;25.13;51.20;99168.31;4989390;28;19977;-78
2022/09/11 06:46:12;;;;;;;;;;;;;;;25.23;50.85;99165.53;4989294;28;20432;-78
2022/09/11 06:48:38;;;;;;;;;;;;;;;25.30;50.12;99173.34;4992548;28;20004;-78
2022/09/11 06:51:04;;;;;;;;;;;;;;;25.38;50.28;99180.03;4992525;28;19914;-78
2022/09/11 06:53:30;;;;;;;;;;;;;;;25.47;50.32;99176.41;4992402;28;20379;-78
2022/09/11 06:56:02;;;;;;;;;;;;;;;25.54;50.05;99192.31;4992220;28;19914;-78
2022/09/11 06:58:28;;;;;;;;;;;;;;;25.56;49.76;99182.00;4992246;28;20406;-78
2022/09/11 07:00:54;;;;;;;;;;;;;;;25.58;49.68;99187.94;4992336;28;19914;-78
2022/09/11 07:03:19;;;;;;;;;;;;;;;25.64;49.79;99186.81;4992405;28;19960;-78
2022/09/11 07:05:46;;;;;;;;;;;;;;;25.71;49.23;99192.72;4992114;28;20359;-78
2022/09/11 07:08:11;;;;;;;;;;;;;;;25.81;49.24;99189.09;4992169;28;19913;-78
2022/09/11 07:10:37;;;;;;;;;;;;;;;25.86;48.69;99180.91;4990901;28;20390;-78
2022/09/11 07:13:02;;;;;;;;;;;;;;;25.94;48.81;99189.22;4992207;28;20314;-78
2022/09/11 07:15:27;;;;;;;;;;;;;;;25.93;48.44;99201.13;4992147;28;20392;-78
2022/09/11 07:17:54;;;;;;;;;;;;;;;25.95;48.52;99190.81;4990731;28;19963;-78
2022/09/11 07:20:19;;;;;;;;;;;;;;;25.95;47.85;99192.72;4991946;28;20016;-78
2022/09/11 07:22:45;;;;;;;;;;;;;;;25.94;48.44;99194.63;4992126;28;19993;-78
2022/09/11 07:25:11;;;;;;;;;;;;;;;25.87;48.40;99199.56;4990822;28;19920;-79
2022/09/11 07:27:36;;;;;;;;;;;;;;;25.84;48.22;99199.34;4992106;28;19915;-78
2022/09/11 07:30:02;;;;;;;;;;;;;;;25.76;48.28;99200.78;4992112;28;20427;-78
2022/09/11 07:32:27;;;;;;;;;;;;;;;25.71;48.62;99194.59;4991870;28;20000;-78
2022/09/11 07:34:53;;;;;;;;;;;;;;;25.73;48.39;99190.53;4991872;28;20009;-78
2022/09/11 07:37:18;;;;;;;;;;;;;;;25.86;48.11;99194.44;4991907;28;19914;-78
2022/09/11 07:39:43;;;;;;;;;;;;;;;26.01;47.68;99197.00;4991796;28;20058;-78
2022/09/11 07:42:09;;;;;;;;;;;;;;;26.11;47.33;99194.19;4991483;28;19921;-78
2022/09/11 07:44:34;;;;;;;;;;;;;;;26.22;47.21;99195.69;4991516;28;20370;-78
2022/09/11 07:46:59;;;;;;;;;;;;;;;26.34;46.75;99203.41;4991662;28;19921;-78
2022/09/11 07:49:26;;;;;;;;;;;;;;;26.44;45.84;99200.59;4990283;28;19913;-78
2022/09/11 07:51:51;;;;;;;;;;;;;;;26.46;45.97;99203.81;4991676;28;20451;-78
2022/09/11 07:54:16;;;;;;;;;;;;;;;26.49;45.98;99195.09;4991472;28;19921;-78
2022/09/11 07:56:42;;;;;;;;;;;;;;;26.60;45.92;99196.56;4991440;28;19918;-78
2022/09/11 07:59:07;;;;;;;;;;;;;;;26.72;45.63;99195.34;4990289;28;19913;-78
2022/09/11 08:01:33;;;;;;;;;;;;;;;26.93;45.83;99196.69;4991311;28;19910;-78
2022/09/11 08:03:59;;;;;;;;;;;;;;;27.04;44.78;99189.22;4990028;28;19914;-78
2022/09/11 08:06:26;;;;;;;;;;;;;;;27.07;44.51;99186.75;4991275;28;19910;-78
2022/09/11 08:08:53;;;;;;;;;;;;;;;27.13;44.12;99190.16;4991595;28;19917;-78
2022/09/11 08:11:18;;;;;;;;;;;;;;;27.28;43.95;99186.41;4991135;28;19914;-78
2022/09/11 08:13:46;;;;;;;;;;;;;;;27.34;43.33;99183.31;4991005;28;19918;-78
2022/09/11 08:16:11;;;;;;;;;;;;;;;27.42;44.08;99182.63;4991104;28;20011;-78
2022/09/11 08:18:37;;;;;;;;;;;;;;;27.54;43.15;99177.56;4989457;28;19964;-78
2022/09/11 08:21:04;;;;;;;;;;;;;;;27.68;42.18;99180.34;4991110;28;19997;-78
2022/09/11 08:23:30;;;;;;;;;;;;;;;27.81;42.65;99182.25;4991078;28;19921;-78
2022/09/11 08:26:01;;;;;;;;;;;;;;;27.98;42.43;99180.84;4991222;28;19920;-78
2022/09/11 08:28:26;;;;;;;;;;;;;;;27.97;41.86;99171.09;4991080;28;20317;-78
2022/09/11 08:30:55;;;;;;;;;;;;;;;28.08;41.73;99170.59;4990917;28;19914;-78
2022/09/11 08:33:21;;;;;;;;;;;;;;;28.07;41.35;99169.00;4990975;28;19926;-78
2022/09/11 08:35:46;;;;;;;;;;;;;;;28.08;40.71;99167.09;4990889;28;19971;-78
2022/09/11 08:38:11;;;;;;;;;;;;;;;28.13;41.73;99164.28;4990968;28;19909;-78
2022/09/11 08:40:37;;;;;;;;;;;;;;;28.26;39.47;99163.50;4990799;28;20382;-78
2022/09/11 08:43:03;;;;;;;;;;;;;;;28.37;39.54;99154.03;4991016;28;19914;-78
2022/09/11 08:45:32;;;;;;;;;;;;;;;28.32;40.17;99151.44;4989510;28;20401;-78
2022/09/11 08:47:57;;;;;;;;;;;;;;;28.40;40.35;99149.91;4990569;28;19914;-78
2022/09/11 08:50:33;;;;;;;;;;;;;;;28.50;40.24;99157.03;4990497;28;19914;-78
2022/09/11 08:53:02;;;;;;;;;;;;;;;28.48;38.22;99150.00;4989057;28;19975;-78
2022/09/11 08:55:33;;;;;;;;;;;;;;;28.42;39.99;99147.69;4990399;28;20386;-78
2022/09/11 08:58:13;;;;;;;;;;;;;;;28.42;38.77;99143.06;4989153;28;19914;-78
2022/09/11 09:00:42;;;;;;;;;;;;;;;28.74;38.11;99143.97;4990563;28;19914;-78
2022/09/11 09:03:11;;;;;;;;;;;;;;;28.94;38.84;99140.00;4989158;28;20000;-78
2022/09/11 09:06:07;;;;;;;;;;;;;;;28.97;37.71;99132.03;4990507;28;19934;-78
2022/09/11 09:08:34;;;;;;;;;;;;;;;28.84;38.66;99126.66;4990326;28;19914;-78
2022/09/11 09:11:19;;;;;;;;;;;;;;;28.72;37.90;99127.19;4988697;28;19917;-78
2022/09/11 09:14:04;;;;;;;;;;;;;;;28.69;38.11;99125.09;4990373;28;19917;-78
2022/09/11 09:16:38;;;;;;;;;;;;;;;28.74;39.19;99124.97;4990267;28;19913;-78
2022/09/11 09:19:16;;;;;;;;;;;;;;;28.66;37.86;99112.09;4989971;28;19928;-78
2022/09/11 09:21:41;;;;;;;;;;;;;;;28.61;38.07;99115.75;4990329;28;19960;-78
2022/09/11 09:24:18;;;;;;;;;;;;;;;28.63;38.85;99113.53;4989025;28;20353;-78
2022/09/11 09:26:45;;;;;;;;;;;;;;;28.68;38.45;99115.31;4990140;28;19979;-78
2022/09/11 09:29:13;;;;;;;;;;;;;;;28.72;38.57;99117.13;4990138;28;19913;-77
2022/09/11 09:31:40;;;;;;;;;;;;;;;28.68;37.92;99107.16;4990143;28;19914;-78
2022/09/11 09:34:05;;;;;;;;;;;;;;;28.72;37.77;99113.59;4990050;28;19918;-77
2022/09/11 09:36:36;;;;;;;;;;;;;;;28.85;35.77;99110.03;4989974;28;20013;-78
2022/09/11 09:39:08;;;;;;;;;;;;;;;28.94;37.09;99107.38;4989969;28;19914;-78
2022/09/11 09:41:48;;;;;;;;;;;;;;;29.28;36.56;99112.25;4989894;28;19914;-78
2022/09/11 09:44:16;;;;;;;;;;;;;;;29.27;34.69;99114.19;4989886;28;19921;-78
2022/09/11 09:46:43;;;;;;;;;;;;;;;29.27;37.16;99107.94;4989811;28;19913;-78
2022/09/11 09:49:16;;;;;;;;;;;;;;;29.61;35.97;99107.31;4989857;28;19920;-78
2022/09/11 09:51:42;;;;;;;;;;;;;;;29.58;35.68;99107.94;4989263;28;20354;-78
2022/09/11 09:54:12;;;;;;;;;;;;;;;29.74;35.24;99109.16;4988579;28;19964;-78
2022/09/11 09:56:38;;;;;;;;;;;;;;;30.27;34.63;99100.84;4988545;28;20389;-78
2022/09/11 09:59:12;;;;;;;;;;;;;;;30.76;34.54;99089.84;4989845;28;19914;-78
2022/09/11 10:01:46;;;;;;;;;;;;;;;30.75;31.23;99089.03;4988553;28;19909;-78
2022/09/11 10:04:22;;;;;;;;;;;;;;;31.06;31.93;99077.09;4989743;28;19914;-78
2022/09/11 10:06:50;;;;;;;;;;;;;;;31.39;33.35;99071.94;4989335;28;19910;-78
2022/09/11 10:09:23;;;;;;;;;;;;;;;31.82;32.72;99079.94;4989381;28;19909;-78
2022/09/11 10:12:11;;;;;;;;;;;;;;;32.08;32.29;99077.88;4989698;28;19936;-78
2022/09/11 10:14:41;;;;;;;;;;;;;;;32.52;33.14;99081.09;4988183;28;19979;-79
2022/09/11 10:17:17;;;;;;;;;;;;;;;32.81;30.79;99072.84;4989366;28;19964;-78
2022/09/11 10:19:43;;;;;;;;;;;;;;;33.02;30.43;99069.28;4989302;28;19922;-78
2022/09/11 10:22:27;;;;;;;;;;;;;;;33.21;29.19;99063.25;4991132;28;19914;-78
2022/09/11 10:25:12;;;;;;;;;;;;;;;33.41;30.01;99065.16;4991677;28;19914;-78
2022/09/11 10:27:58;;;;;;;;;;;;;;;33.67;29.52;99056.63;4992757;28;19937;-78
2022/09/11 10:30:43;;;;;;;;;;;;;;;33.69;30.37;99063.34;4991491;28;19920;-78
2022/09/11 10:33:17;;;;;;;;;;;;;;;33.34;29.57;99062.16;4985696;28;19918;-78
2022/09/11 10:35:49;;;;;;;;;;;;;;;33.31;31.42;99071.84;4992637;28;19922;-78
2022/09/11 10:38:17;;;;;;;;;;;;;;;33.46;31.27;99063.00;4992741;28;20356;-78
2022/09/11 10:40:52;;;;;;;;;;;;;;;33.70;28.54;99072.38;4992574;28;20404;-78
2022/09/11 10:43:23;;;;;;;;;;;;;;;33.71;29.39;99066.53;4991380;28;19914;-78
2022/09/11 10:46:05;;;;;;;;;;;;;;;33.55;28.66;99057.41;4992555;28;19920;-78
2022/09/11 10:48:31;;;;;;;;;;;;;;;33.82;29.38;99060.63;4992422;28;19913;-78
2022/09/11 10:51:04;;;;;;;;;;;;;;;33.96;27.35;99056.38;4992367;28;19920;-78
2022/09/11 10:53:32;;;;;;;;;;;;;;;33.94;29.44;99055.13;4992221;28;19917;-78
2022/09/11 10:55:59;;;;;;;;;;;;;;;33.68;28.34;99048.06;4991037;28;19913;-78
2022/09/11 10:58:29;;;;;;;;;;;;;;;33.35;28.90;99050.88;4992466;28;19914;-79
2022/09/11 11:00:55;;;;;;;;;;;;;;;32.84;28.01;99050.31;4992425;28;19928;-78
2022/09/11 11:03:25;;;;;;;;;;;;;;;32.42;28.86;99046.78;4992381;28;19918;-78
2022/09/11 11:06:09;;;;;;;;;;;;;;;32.22;28.59;99042.09;4990937;28;20310;-79
2022/09/11 11:08:56;;;;;;;;;;;;;;;32.20;30.37;99044.38;4992268;28;19921;-78
2022/09/11 11:11:33;;;;;;;;;;;;;;;32.81;28.88;99040.03;4992281;28;19917;-78
2022/09/11 11:13:59;;;;;;;;;;;;;;;33.26;28.29;99036.47;4992039;28;19918;-79
2022/09/11 11:16:33;;;;;;;;;;;;;;;33.33;26.83;99028.53;4992168;28;20284;-78
2022/09/11 11:19:16;;;;;;;;;;;;;;;33.75;29.14;99029.13;4991965;28;19921;-78
2022/09/11 11:22:00;;;;;;;;;;;;;;;34.05;28.10;99024.19;4990815;28;19914;-78
2022/09/11 11:24:26;;;;;;;;;;;;;;;34.32;25.24;99024.59;4992106;28;19963;-78
2022/09/11 11:27:00;;;;;;;;;;;;;;;34.29;27.63;99017.06;4991783;28;19913;-78
2022/09/11 11:29:33;;;;;;;;;;;;;;;34.47;27.00;99004.69;4990474;28;20008;-78
2022/09/11 11:32:29;;;;;;;;;;;;;;;34.79;27.04;99008.28;4991490;28;19910;-78
2022/09/11 11:35:03;;;;;;;;;;;;;;;34.97;27.26;99003.31;4983524;28;20024;-78
2022/09/11 11:37:31;;;;;;;;;;;;;;;35.16;24.46;99006.16;4990538;28;20378;-78
2022/09/11 11:40:01;;;;;;;;;;;;;;;35.41;25.63;99001.28;4991830;28;20413;-78
2022/09/11 11:42:28;;;;;;;;;;;;;;;35.47;23.45;99005.34;4991680;28;19917;-78
2022/09/11 11:45:19;;;;;;;;;;;;;;;35.57;23.93;99010.28;4991757;28;19914;-78
2022/09/11 11:47:46;;;;;;;;;;;;;;;35.36;24.36;98998.81;4991626;28;19921;-78
2022/09/11 11:50:11;;;;;;;;;;;;;;;34.99;26.09;99001.00;4990247;28;19921;-78
2022/09/11 11:52:42;;;;;;;;;;;;;;;34.61;26.76;98996.03;4991423;28;19918;-78
2022/09/11 11:55:19;;;;;;;;;;;;;;;34.55;25.82;98983.75;4991437;28;20463;-78
2022/09/11 11:57:56;;;;;;;;;;;;;;;34.72;26.17;98980.66;4991293;28;19914;-78
2022/09/11 12:00:21;;;;;;;;;;;;;;;34.70;24.53;98980.22;4990091;28;20060;-78
2022/09/11 12:03:07;;;;;;;;;;;;;;;34.70;24.91;98980.22;4991774;28;19993;-78
2022/09/11 12:05:33;;;;;;;;;;;;;;;34.51;23.38;98972.69;4991249;28;19996;-78
2022/09/11 12:07:59;;;;;;;;;;;;;;;34.17;27.27;98978.72;4991068;28;19964;-78
2022/09/11 12:10:30;;;;;;;;;;;;;;;33.68;25.47;98970.59;4991204;28;19968;-79
2022/09/11 12:12:58;;;;;;;;;;;;;;;33.33;26.08;98970.28;4990947;28;19914;-78
2022/09/11 12:15:24;;;;;;;;;;;;;;;32.92;26.17;98971.25;4991224;28;19921;-78
2022/09/11 12:18:01;;;;;;;;;;;;;;;32.63;27.56;98959.28;4991131;28;19913;-78
2022/09/11 12:20:29;;;;;;;;;;;;;;;32.43;27.55;98963.66;4989808;28;19928;-78
2022/09/11 12:22:55;;;;;;;;;;;;;;;32.28;26.72;98955.31;4991220;28;19914;-78
2022/09/11 12:25:20;;;;;;;;;;;;;;;32.18;27.60;98949.09;4991160;28;19917;-78
2022/09/11 12:27:52;;;;;;;;;;;;;;;32.25;26.63;98945.84;4991150;28;19914;-78
2022/09/11 12:30:19;;;;;;;;;;;;;;;32.30;26.69;98942.13;4991088;28;19921;-78
2022/09/11 12:32:47;;;;;;;;;;;;;;;32.40;27.91;98944.41;4991029;28;19910;-78
2022/09/11 12:35:33;;;;;;;;;;;;;;;32.28;26.79;98944.38;4990902;28;19971;-78
2022/09/11 12:38:01;;;;;;;;;;;;;;;32.17;27.94;98941.25;4990831;28;20313;-78
2022/09/11 12:40:26;;;;;;;;;;;;;;;32.01;28.19;98943.78;4990789;28;20365;-78
2022/09/11 12:42:56;;;;;;;;;;;;;;;31.97;28.78;98936.59;4990669;28;19918;-78
2022/09/11 12:45:28;;;;;;;;;;;;;;;31.99;28.75;98942.53;4990054;28;19917;-78
2022/09/11 12:48:01;;;;;;;;;;;;;;;32.15;29.18;98935.31;4990721;28;19917;-78
2022/09/11 12:50:27;;;;;;;;;;;;;;;32.33;27.85;98941.44;4990668;28;19917;-78
2022/09/11 12:52:56;;;;;;;;;;;;;;;32.27;27.58;98942.78;4990752;28;19914;-78
2022/09/11 12:55:39;;;;;;;;;;;;;;;32.11;27.79;98937.91;4990661;28;19949;-78
2022/09/11 12:58:34;;;;;;;;;;;;;;;32.10;27.65;98933.59;4989440;28;19943;-78